Overview Statistics Trail Chart Weather Telemetry Raw packets
 

This is the latest recevied weather packets stored in our database for station/object HS5AU-13. If no packets are shown the sender has not sent any weather packets the latest 10 day(s).

<< 49 50 51 52 53 54 55 >>
Time Temp. Humidity Pressure Rain* Wind** Luminosity Snow
1787817898 27.22° C 92% 997.1 hPa 0 mm - 394 W/m² -
1787817298 27.22° C 87% 997.2 hPa 0 mm - 200 W/m² -
1787816698 27.78° C 87% 997.6 hPa 0 mm - 358 W/m² -
1787816098 28.33° C 90% 997.3 hPa 0 mm - 901 W/m² -
1787815498 27.78° C 88% 997.5 hPa 0 mm - 924 W/m² -
1787814898 27.78° C 91% 997.5 hPa 0 mm - 289 W/m² -
1787814301 27.78° C 85% 998 hPa 0 mm - 673 W/m² -
1787813698 30° C 78% 999.5 hPa 0 mm - 796 W/m² -
1787813098 29.44° C 80% 999.6 hPa 0 mm - 999 W/m² -
1787812498 29.44° C 82% 999.2 hPa 0 mm - 1125 W/m² -
1787811898 29.44° C 82% 999.1 hPa 0 mm - 873 W/m² -
1787811298 28.89° C 89% 998.3 hPa 0 mm - 549 W/m² -
1787810698 27.78° C 90% 998.7 hPa 0 mm - 540 W/m² -
1787810098 26.67° C 89% 999.2 hPa 0 mm - 528 W/m² -
1787809498 27.22° C 89% 999.4 hPa 0 mm - 315 W/m² -
1787808898 27.78° C 86% 999.8 hPa 0 mm - 498 W/m² -
1787808298 29.44° C 83% 1000.3 hPa 0 mm - 544 W/m² -
1787807698 28.33° C 83% 1000.1 hPa 0 mm - 615 W/m² -
1787807098 28.89° C 81% 1000.3 hPa 0 mm - 756 W/m² -
1787806498 27.22° C 88% 1000.2 hPa 0 mm - 273 W/m² -
1787805898 27.22° C 86% 1000.2 hPa 0 mm - 575 W/m² -
1787805298 27.78° C 85% 1000.7 hPa 0 mm - 539 W/m² -
1787804698 27.22° C 87% 1000.5 hPa 0 mm - 864 W/m² -
1787804098 26.67° C 90% 1000.6 hPa 0 mm - 289 W/m² -
1787803498 27.22° C 86% 1000.7 hPa 0 mm - 427 W/m² -

* Rain latest hour (hover to see other rain measurements)
** Current wind speed in m/s (hover to see current wind gust speed)